< < Back
Terminal Aerodrome Forecast


Current Version              Previous Versions:   1  2  3  4  5  6  7  8  9  

Terminal Aerodrome Forecast

435
FTUS44 KOHX 030700 AAB
TAFCSV
TAF AMD
KCSV 030757Z 0308/0406 14003KT P6SM OVC020
     FM031000 VRB03KT P6SM OVC006
     FM031200 18007KT 2SM -SHRA BR OVC003
     FM031800 21013G20KT 2SM -SHRA BR OVC003=

Latest METAR

316
SAUS70 KWBC 031200 RRB
MTRCSV
METAR KCSV 031153Z AUTO 22003KT 2 1/2SM BR OVC003 07/06 A3016 RMK AO2
SLP215 T00720061 10072 20056 55003


USA.gov is the U.S. government's official web portal to all federal, state and local government web resources and services.